sensor_id;sensor_type;location;lat;lon;timestamp;P1;durP1;ratioP1;P2;durP2;ratioP2
68384;SDS011;55336;43.062;25.626;2023-09-19T00:01:33;3.10;;;2.90;;
68384;SDS011;55336;43.062;25.626;2023-09-19T00:03:59;2.78;;;2.58;;
68384;SDS011;55336;43.062;25.626;2023-09-19T00:06:28;3.30;;;2.95;;
68384;SDS011;55336;43.062;25.626;2023-09-19T00:08:56;4.78;;;2.83;;
68384;SDS011;55336;43.062;25.626;2023-09-19T00:11:25;2.80;;;2.60;;
68384;SDS011;55336;43.062;25.626;2023-09-19T00:13:52;3.50;;;3.22;;
68384;SDS011;55336;43.062;25.626;2023-09-19T00:16:18;3.08;;;2.72;;
68384;SDS011;55336;43.062;25.626;2023-09-19T00:21:11;2.92;;;2.33;;
68384;SDS011;55336;43.062;25.626;2023-09-19T00:26:03;2.97;;;2.75;;
68384;SDS011;55336;43.062;25.626;2023-09-19T00:30:55;2.65;;;2.53;;
68384;SDS011;55336;43.062;25.626;2023-09-19T00:35:48;3.00;;;2.65;;
68384;SDS011;55336;43.062;25.626;2023-09-19T00:38:14;2.42;;;2.33;;
68384;SDS011;55336;43.062;25.626;2023-09-19T00:40:46;4.63;;;3.22;;
68384;SDS011;55336;43.062;25.626;2023-09-19T00:43:12;3.03;;;2.83;;
68384;SDS011;55336;43.062;25.626;2023-09-19T00:48:07;3.17;;;2.47;;
68384;SDS011;55336;43.062;25.626;2023-09-19T00:50:35;3.30;;;3.10;;
68384;SDS011;55336;43.062;25.626;2023-09-19T00:53:01;2.72;;;2.53;;
68384;SDS011;55336;43.062;25.626;2023-09-19T00:55:33;2.83;;;2.67;;
68384;SDS011;55336;43.062;25.626;2023-09-19T00:57:59;3.03;;;2.83;;
68384;SDS011;55336;43.062;25.626;2023-09-19T01:00:26;4.18;;;3.70;;
68384;SDS011;55336;43.062;25.626;2023-09-19T01:02:53;3.55;;;3.25;;
68384;SDS011;55336;43.062;25.626;2023-09-19T01:05:20;3.75;;;3.03;;
68384;SDS011;55336;43.062;25.626;2023-09-19T01:10:16;3.10;;;2.90;;
68384;SDS011;55336;43.062;25.626;2023-09-19T01:18:15;3.13;;;2.92;;
68384;SDS011;55336;43.062;25.626;2023-09-19T01:32:05;3.00;;;2.80;;
68384;SDS011;55336;43.062;25.626;2023-09-19T01:34:48;3.83;;;3.42;;
68384;SDS011;55336;43.062;25.626;2023-09-19T01:37:15;3.10;;;2.90;;
68384;SDS011;55336;43.062;25.626;2023-09-19T01:39:46;2.65;;;2.45;;
68384;SDS011;55336;43.062;25.626;2023-09-19T01:42:49;3.55;;;3.08;;
68384;SDS011;55336;43.062;25.626;2023-09-19T01:51:08;3.40;;;2.83;;
68384;SDS011;55336;43.062;25.626;2023-09-19T01:53:37;3.80;;;3.50;;
68384;SDS011;55336;43.062;25.626;2023-09-19T01:56:25;2.38;;;2.28;;
68384;SDS011;55336;43.062;25.626;2023-09-19T01:59:04;4.63;;;3.22;;
68384;SDS011;55336;43.062;25.626;2023-09-19T02:01:35;3.65;;;3.35;;
68384;SDS011;55336;43.062;25.626;2023-09-19T02:04:03;3.78;;;3.47;;
68384;SDS011;55336;43.062;25.626;2023-09-19T02:06:29;4.25;;;3.22;;
68384;SDS011;55336;43.062;25.626;2023-09-19T02:08:56;3.53;;;3.28;;
68384;SDS011;55336;43.062;25.626;2023-09-19T02:13:48;3.35;;;2.83;;
68384;SDS011;55336;43.062;25.626;2023-09-19T02:16:19;3.13;;;2.92;;
68384;SDS011;55336;43.062;25.626;2023-09-19T02:18:47;3.95;;;3.65;;
68384;SDS011;55336;43.062;25.626;2023-09-19T02:21:15;3.63;;;3.15;;
68384;SDS011;55336;43.062;25.626;2023-09-19T02:23:42;3.55;;;3.28;;
68384;SDS011;55336;43.062;25.626;2023-09-19T02:26:09;3.45;;;3.15;;
68384;SDS011;55336;43.062;25.626;2023-09-19T02:28:37;4.78;;;3.58;;
68384;SDS011;55336;43.062;25.626;2023-09-19T02:33:30;3.60;;;3.30;;
68384;SDS011;55336;43.062;25.626;2023-09-19T02:35:58;3.55;;;3.25;;
68384;SDS011;55336;43.062;25.626;2023-09-19T02:38:24;3.50;;;3.22;;
68384;SDS011;55336;43.062;25.626;2023-09-19T02:40:51;3.75;;;3.25;;
68384;SDS011;55336;43.062;25.626;2023-09-19T02:43:18;2.85;;;2.65;;
68384;SDS011;55336;43.062;25.626;2023-09-19T02:45:46;3.10;;;2.90;;
68384;SDS011;55336;43.062;25.626;2023-09-19T02:48:15;4.13;;;3.75;;
68384;SDS011;55336;43.062;25.626;2023-09-19T02:50:42;3.15;;;2.85;;
68384;SDS011;55336;43.062;25.626;2023-09-19T02:53:09;3.55;;;3.25;;
68384;SDS011;55336;43.062;25.626;2023-09-19T02:55:38;3.20;;;3.00;;
68384;SDS011;55336;43.062;25.626;2023-09-19T02:58:05;3.03;;;2.83;;
68384;SDS011;55336;43.062;25.626;2023-09-19T03:00:36;3.28;;;3.03;;
68384;SDS011;55336;43.062;25.626;2023-09-19T03:03:02;3.45;;;3.15;;
68384;SDS011;55336;43.062;25.626;2023-09-19T03:05:30;3.78;;;3.47;;
68384;SDS011;55336;43.062;25.626;2023-09-19T03:10:22;2.90;;;2.67;;
68384;SDS011;55336;43.062;25.626;2023-09-19T03:12:49;3.35;;;3.15;;
68384;SDS011;55336;43.062;25.626;2023-09-19T03:15:16;3.30;;;3.10;;
68384;SDS011;55336;43.062;25.626;2023-09-19T03:17:46;3.53;;;3.22;;
68384;SDS011;55336;43.062;25.626;2023-09-19T03:20:13;4.63;;;3.47;;
68384;SDS011;55336;43.062;25.626;2023-09-19T03:22:44;3.67;;;3.38;;
68384;SDS011;55336;43.062;25.626;2023-09-19T03:25:11;3.90;;;3.60;;
68384;SDS011;55336;43.062;25.626;2023-09-19T03:27:40;5.00;;;4.30;;
68384;SDS011;55336;43.062;25.626;2023-09-19T03:30:07;3.40;;;3.20;;
68384;SDS011;55336;43.062;25.626;2023-09-19T03:32:36;3.75;;;3.45;;
68384;SDS011;55336;43.062;25.626;2023-09-19T03:35:08;3.47;;;3.28;;
68384;SDS011;55336;43.062;25.626;2023-09-19T03:40:00;3.25;;;3.05;;
68384;SDS011;55336;43.062;25.626;2023-09-19T03:42:30;5.28;;;3.58;;
68384;SDS011;55336;43.062;25.626;2023-09-19T03:44:56;3.90;;;3.60;;
68384;SDS011;55336;43.062;25.626;2023-09-19T03:49:48;3.25;;;2.92;;
68384;SDS011;55336;43.062;25.626;2023-09-19T03:57:06;3.28;;;2.83;;
68384;SDS011;55336;43.062;25.626;2023-09-19T04:01:58;3.72;;;3.42;;
68384;SDS011;55336;43.062;25.626;2023-09-19T04:04:24;6.03;;;3.97;;
68384;SDS011;55336;43.062;25.626;2023-09-19T04:09:16;2.97;;;2.78;;
68384;SDS011;55336;43.062;25.626;2023-09-19T04:14:08;3.33;;;3.13;;
68384;SDS011;55336;43.062;25.626;2023-09-19T04:18:59;3.83;;;3.42;;
68384;SDS011;55336;43.062;25.626;2023-09-19T04:21:25;3.60;;;3.35;;
68384;SDS011;55336;43.062;25.626;2023-09-19T04:23:53;4.32;;;3.55;;
68384;SDS011;55336;43.062;25.626;2023-09-19T04:26:20;4.38;;;3.67;;
68384;SDS011;55336;43.062;25.626;2023-09-19T04:28:47;4.32;;;3.33;;
68384;SDS011;55336;43.062;25.626;2023-09-19T04:33:39;3.73;;;3.43;;
68384;SDS011;55336;43.062;25.626;2023-09-19T04:38:33;4.60;;;4.20;;
68384;SDS011;55336;43.062;25.626;2023-09-19T04:40:59;3.88;;;3.58;;
68384;SDS011;55336;43.062;25.626;2023-09-19T04:45:51;4.03;;;3.47;;
68384;SDS011;55336;43.062;25.626;2023-09-19T04:48:21;3.78;;;3.47;;
68384;SDS011;55336;43.062;25.626;2023-09-19T04:50:49;5.55;;;3.88;;
68384;SDS011;55336;43.062;25.626;2023-09-19T04:53:16;4.63;;;4.22;;
68384;SDS011;55336;43.062;25.626;2023-09-19T04:55:49;3.78;;;3.47;;
68384;SDS011;55336;43.062;25.626;2023-09-19T04:58:15;6.07;;;4.25;;
68384;SDS011;55336;43.062;25.626;2023-09-19T05:00:42;5.82;;;5.22;;
68384;SDS011;55336;43.062;25.626;2023-09-19T05:05:34;6.60;;;4.35;;
68384;SDS011;55336;43.062;25.626;2023-09-19T05:10:30;5.00;;;4.47;;
68384;SDS011;55336;43.062;25.626;2023-09-19T05:12:56;4.97;;;4.55;;
68384;SDS011;55336;43.062;25.626;2023-09-19T05:17:48;13.23;;;4.75;;
68384;SDS011;55336;43.062;25.626;2023-09-19T05:20:20;5.82;;;5.10;;
68384;SDS011;55336;43.062;25.626;2023-09-19T05:23:06;5.90;;;5.35;;
68384;SDS011;55336;43.062;25.626;2023-09-19T05:25:37;5.40;;;4.90;;
68384;SDS011;55336;43.062;25.626;2023-09-19T05:28:08;5.60;;;5.00;;
68384;SDS011;55336;43.062;25.626;2023-09-19T05:30:37;7.47;;;4.85;;
68384;SDS011;55336;43.062;25.626;2023-09-19T05:33:08;6.30;;;4.85;;
68384;SDS011;55336;43.062;25.626;2023-09-19T05:35:34;5.78;;;4.30;;
68384;SDS011;55336;43.062;25.626;2023-09-19T05:38:05;5.93;;;4.80;;
68384;SDS011;55336;43.062;25.626;2023-09-19T05:40:34;5.13;;;4.28;;
68384;SDS011;55336;43.062;25.626;2023-09-19T05:43:00;8.88;;;5.20;;
68384;SDS011;55336;43.062;25.626;2023-09-19T05:45:28;4.95;;;4.55;;
68384;SDS011;55336;43.062;25.626;2023-09-19T05:50:29;4.68;;;4.28;;
68384;SDS011;55336;43.062;25.626;2023-09-19T05:52:57;5.80;;;5.00;;
68384;SDS011;55336;43.062;25.626;2023-09-19T05:57:53;4.53;;;3.95;;
68384;SDS011;55336;43.062;25.626;2023-09-19T06:02:54;4.93;;;4.38;;
68384;SDS011;55336;43.062;25.626;2023-09-19T06:05:22;4.35;;;4.05;;
68384;SDS011;55336;43.062;25.626;2023-09-19T06:07:49;4.95;;;4.47;;
68384;SDS011;55336;43.062;25.626;2023-09-19T06:10:16;6.50;;;5.55;;
68384;SDS011;55336;43.062;25.626;2023-09-19T06:12:42;5.65;;;5.15;;
68384;SDS011;55336;43.062;25.626;2023-09-19T06:15:09;5.40;;;4.88;;
68384;SDS011;55336;43.062;25.626;2023-09-19T06:17:40;5.45;;;4.60;;
68384;SDS011;55336;43.062;25.626;2023-09-19T06:20:21;9.65;;;4.43;;
68384;SDS011;55336;43.062;25.626;2023-09-19T06:22:48;4.13;;;3.72;;
68384;SDS011;55336;43.062;25.626;2023-09-19T06:25:15;6.07;;;4.72;;
68384;SDS011;55336;43.062;25.626;2023-09-19T06:27:47;8.27;;;5.00;;
68384;SDS011;55336;43.062;25.626;2023-09-19T06:30:13;6.10;;;4.47;;
68384;SDS011;55336;43.062;25.626;2023-09-19T06:32:40;5.13;;;4.63;;
68384;SDS011;55336;43.062;25.626;2023-09-19T06:35:09;5.78;;;4.75;;
68384;SDS011;55336;43.062;25.626;2023-09-19T06:37:39;6.72;;;4.40;;
68384;SDS011;55336;43.062;25.626;2023-09-19T06:40:10;23.77;;;6.30;;
68384;SDS011;55336;43.062;25.626;2023-09-19T06:43:00;5.03;;;3.80;;
68384;SDS011;55336;43.062;25.626;2023-09-19T06:45:27;6.53;;;4.18;;
68384;SDS011;55336;43.062;25.626;2023-09-19T06:50:23;4.90;;;3.75;;
68384;SDS011;55336;43.062;25.626;2023-09-19T06:53:01;6.03;;;3.55;;
68384;SDS011;55336;43.062;25.626;2023-09-19T06:57:56;5.28;;;3.25;;
68384;SDS011;55336;43.062;25.626;2023-09-19T07:00:23;3.35;;;2.90;;
68384;SDS011;55336;43.062;25.626;2023-09-19T07:05:29;2.83;;;2.47;;
68384;SDS011;55336;43.062;25.626;2023-09-19T07:07:56;3.83;;;3.03;;
68384;SDS011;55336;43.062;25.626;2023-09-19T07:10:29;2.78;;;2.58;;
68384;SDS011;55336;43.062;25.626;2023-09-19T07:12:56;3.38;;;3.00;;
68384;SDS011;55336;43.062;25.626;2023-09-19T07:15:26;2.30;;;2.10;;
68384;SDS011;55336;43.062;25.626;2023-09-19T07:17:55;5.68;;;4.28;;
68384;SDS011;55336;43.062;25.626;2023-09-19T07:20:22;3.63;;;3.33;;
68384;SDS011;55336;43.062;25.626;2023-09-19T07:22:53;7.20;;;5.93;;
68384;SDS011;55336;43.062;25.626;2023-09-19T07:25:20;4.72;;;2.40;;
68384;SDS011;55336;43.062;25.626;2023-09-19T07:27:46;3.08;;;2.60;;
68384;SDS011;55336;43.062;25.626;2023-09-19T07:30:14;3.08;;;2.53;;
68384;SDS011;55336;43.062;25.626;2023-09-19T07:32:41;3.00;;;2.35;;
68384;SDS011;55336;43.062;25.626;2023-09-19T07:37:34;1.57;;;1.47;;
68384;SDS011;55336;43.062;25.626;2023-09-19T07:40:01;1.92;;;1.80;;
68384;SDS011;55336;43.062;25.626;2023-09-19T07:42:33;2.78;;;2.05;;
68384;SDS011;55336;43.062;25.626;2023-09-19T07:45:02;3.35;;;1.23;;
68384;SDS011;55336;43.062;25.626;2023-09-19T07:47:28;3.03;;;2.20;;
68384;SDS011;55336;43.062;25.626;2023-09-19T07:49:55;2.20;;;2.00;;
68384;SDS011;55336;43.062;25.626;2023-09-19T07:54:48;2.80;;;1.58;;
68384;SDS011;55336;43.062;25.626;2023-09-19T07:57:17;2.63;;;2.15;;
68384;SDS011;55336;43.062;25.626;2023-09-19T07:59:47;1.75;;;1.60;;
68384;SDS011;55336;43.062;25.626;2023-09-19T08:02:13;2.05;;;1.95;;
68384;SDS011;55336;43.062;25.626;2023-09-19T08:04:42;1.70;;;1.60;;
68384;SDS011;55336;43.062;25.626;2023-09-19T08:07:08;1.73;;;1.63;;
68384;SDS011;55336;43.062;25.626;2023-09-19T08:09:34;1.35;;;1.25;;
68384;SDS011;55336;43.062;25.626;2023-09-19T08:12:02;1.13;;;1.13;;
68384;SDS011;55336;43.062;25.626;2023-09-19T08:14:28;1.45;;;1.35;;
68384;SDS011;55336;43.062;25.626;2023-09-19T08:16:57;1.48;;;1.38;;
68384;SDS011;55336;43.062;25.626;2023-09-19T08:19:27;1.20;;;1.20;;
68384;SDS011;55336;43.062;25.626;2023-09-19T08:22:00;1.50;;;1.40;;
68384;SDS011;55336;43.062;25.626;2023-09-19T08:24:26;1.20;;;1.10;;
68384;SDS011;55336;43.062;25.626;2023-09-19T08:26:57;1.70;;;1.60;;
68384;SDS011;55336;43.062;25.626;2023-09-19T08:29:23;1.33;;;1.23;;
68384;SDS011;55336;43.062;25.626;2023-09-19T08:31:55;1.27;;;1.10;;
68384;SDS011;55336;43.062;25.626;2023-09-19T08:34:22;1.48;;;1.38;;
68384;SDS011;55336;43.062;25.626;2023-09-19T08:36:50;1.33;;;1.23;;
68384;SDS011;55336;43.062;25.626;2023-09-19T08:39:17;1.27;;;1.17;;
68384;SDS011;55336;43.062;25.626;2023-09-19T08:41:44;2.35;;;1.58;;
68384;SDS011;55336;43.062;25.626;2023-09-19T08:44:10;1.33;;;1.23;;
68384;SDS011;55336;43.062;25.626;2023-09-19T08:46:38;1.65;;;1.55;;
68384;SDS011;55336;43.062;25.626;2023-09-19T08:49:17;1.60;;;1.50;;
68384;SDS011;55336;43.062;25.626;2023-09-19T08:51:53;1.20;;;1.20;;
68384;SDS011;55336;43.062;25.626;2023-09-19T08:54:32;1.67;;;1.58;;
68384;SDS011;55336;43.062;25.626;2023-09-19T08:57:05;1.70;;;1.60;;
68384;SDS011;55336;43.062;25.626;2023-09-19T08:59:39;3.20;;;1.35;;
68384;SDS011;55336;43.062;25.626;2023-09-19T09:02:15;1.23;;;1.13;;
68384;SDS011;55336;43.062;25.626;2023-09-19T09:04:44;0.77;;;0.77;;
68384;SDS011;55336;43.062;25.626;2023-09-19T09:07:12;1.50;;;1.40;;
68384;SDS011;55336;43.062;25.626;2023-09-19T09:09:39;1.42;;;1.33;;
68384;SDS011;55336;43.062;25.626;2023-09-19T09:12:12;1.95;;;1.70;;
68384;SDS011;55336;43.062;25.626;2023-09-19T09:14:40;4.80;;;1.45;;
68384;SDS011;55336;43.062;25.626;2023-09-19T09:17:10;1.38;;;1.27;;
68384;SDS011;55336;43.062;25.626;2023-09-19T09:19:37;1.77;;;1.50;;
68384;SDS011;55336;43.062;25.626;2023-09-19T09:25:17;4.07;;;1.35;;
68384;SDS011;55336;43.062;25.626;2023-09-19T09:27:45;1.27;;;1.17;;
68384;SDS011;55336;43.062;25.626;2023-09-19T09:30:36;1.50;;;1.40;;
68384;SDS011;55336;43.062;25.626;2023-09-19T09:33:09;1.87;;;1.77;;
68384;SDS011;55336;43.062;25.626;2023-09-19T09:35:56;2.80;;;1.38;;
68384;SDS011;55336;43.062;25.626;2023-09-19T09:38:42;2.00;;;1.60;;
68384;SDS011;55336;43.062;25.626;2023-09-19T09:41:13;1.60;;;1.50;;
68384;SDS011;55336;43.062;25.626;2023-09-19T09:43:52;1.88;;;1.77;;
68384;SDS011;55336;43.062;25.626;2023-09-19T09:46:19;6.28;;;1.63;;
68384;SDS011;55336;43.062;25.626;2023-09-19T09:49:07;1.75;;;1.65;;
68384;SDS011;55336;43.062;25.626;2023-09-19T09:51:58;2.45;;;1.67;;
68384;SDS011;55336;43.062;25.626;2023-09-19T09:55:01;2.95;;;2.00;;
68384;SDS011;55336;43.062;25.626;2023-09-19T09:57:30;1.25;;;1.15;;
68384;SDS011;55336;43.062;25.626;2023-09-19T10:02:52;2.87;;;1.67;;
68384;SDS011;55336;43.062;25.626;2023-09-19T10:05:19;3.03;;;1.73;;
68384;SDS011;55336;43.062;25.626;2023-09-19T10:07:46;2.05;;;1.20;;
68384;SDS011;55336;43.062;25.626;2023-09-19T10:13:07;1.27;;;1.20;;
68384;SDS011;55336;43.062;25.626;2023-09-19T10:15:47;1.55;;;1.30;;
68384;SDS011;55336;43.062;25.626;2023-09-19T10:18:19;1.77;;;1.35;;
68384;SDS011;55336;43.062;25.626;2023-09-19T10:20:53;1.48;;;1.38;;
68384;SDS011;55336;43.062;25.626;2023-09-19T10:23:20;1.27;;;1.17;;
68384;SDS011;55336;43.062;25.626;2023-09-19T10:25:51;1.52;;;1.42;;
68384;SDS011;55336;43.062;25.626;2023-09-19T10:28:18;1.63;;;1.48;;
68384;SDS011;55336;43.062;25.626;2023-09-19T10:30:52;1.27;;;1.27;;
68384;SDS011;55336;43.062;25.626;2023-09-19T10:33:19;2.28;;;1.70;;
68384;SDS011;55336;43.062;25.626;2023-09-19T10:35:50;1.83;;;1.67;;
68384;SDS011;55336;43.062;25.626;2023-09-19T10:38:23;1.45;;;1.35;;
68384;SDS011;55336;43.062;25.626;2023-09-19T10:40:50;2.58;;;1.88;;
68384;SDS011;55336;43.062;25.626;2023-09-19T10:43:21;1.88;;;1.23;;
68384;SDS011;55336;43.062;25.626;2023-09-19T10:45:54;0.88;;;0.88;;
68384;SDS011;55336;43.062;25.626;2023-09-19T10:48:30;1.95;;;1.77;;
68384;SDS011;55336;43.062;25.626;2023-09-19T10:51:07;1.52;;;1.38;;
68384;SDS011;55336;43.062;25.626;2023-09-19T10:54:10;1.90;;;1.80;;
68384;SDS011;55336;43.062;25.626;2023-09-19T10:57:04;1.23;;;1.13;;
68384;SDS011;55336;43.062;25.626;2023-09-19T10:59:35;1.30;;;1.20;;
68384;SDS011;55336;43.062;25.626;2023-09-19T11:02:17;3.92;;;1.45;;
68384;SDS011;55336;43.062;25.626;2023-09-19T11:04:43;1.08;;;1.08;;
68384;SDS011;55336;43.062;25.626;2023-09-19T11:07:11;1.67;;;1.58;;
68384;SDS011;55336;43.062;25.626;2023-09-19T11:09:48;1.48;;;1.38;;
68384;SDS011;55336;43.062;25.626;2023-09-19T11:14:57;1.27;;;1.17;;
68384;SDS011;55336;43.062;25.626;2023-09-19T11:30:40;1.27;;;1.17;;
68384;SDS011;55336;43.062;25.626;2023-09-19T11:34:21;1.40;;;1.23;;
68384;SDS011;55336;43.062;25.626;2023-09-19T11:36:59;1.35;;;1.27;;
68384;SDS011;55336;43.062;25.626;2023-09-19T11:39:25;1.10;;;1.10;;
68384;SDS011;55336;43.062;25.626;2023-09-19T11:41:54;2.25;;;2.00;;
68384;SDS011;55336;43.062;25.626;2023-09-19T11:47:04;1.58;;;1.48;;
68384;SDS011;55336;43.062;25.626;2023-09-19T11:49:31;1.38;;;1.20;;
68384;SDS011;55336;43.062;25.626;2023-09-19T11:52:01;1.45;;;1.35;;
68384;SDS011;55336;43.062;25.626;2023-09-19T11:54:31;1.25;;;1.17;;
68384;SDS011;55336;43.062;25.626;2023-09-19T11:56:58;1.52;;;1.42;;
68384;SDS011;55336;43.062;25.626;2023-09-19T11:59:29;1.20;;;1.10;;
68384;SDS011;55336;43.062;25.626;2023-09-19T12:02:03;0.88;;;0.88;;
68384;SDS011;55336;43.062;25.626;2023-09-19T12:07:03;1.77;;;0.90;;
68384;SDS011;55336;43.062;25.626;2023-09-19T12:09:31;0.98;;;0.98;;
68384;SDS011;55336;43.062;25.626;2023-09-19T12:11:57;1.00;;;1.00;;
68384;SDS011;55336;43.062;25.626;2023-09-19T12:14:24;1.35;;;1.25;;
68384;SDS011;55336;43.062;25.626;2023-09-19T12:16:54;1.60;;;1.50;;
68384;SDS011;55336;43.062;25.626;2023-09-19T12:19:22;1.00;;;1.00;;
68384;SDS011;55336;43.062;25.626;2023-09-19T12:22:01;0.77;;;0.77;;
68384;SDS011;55336;43.062;25.626;2023-09-19T12:24:32;1.20;;;1.10;;
68384;SDS011;55336;43.062;25.626;2023-09-19T12:27:00;0.90;;;0.88;;
68384;SDS011;55336;43.062;25.626;2023-09-19T12:29:30;1.48;;;1.35;;
68384;SDS011;55336;43.062;25.626;2023-09-19T12:32:10;1.50;;;1.40;;
68384;SDS011;55336;43.062;25.626;2023-09-19T12:34:38;1.10;;;1.00;;
68384;SDS011;55336;43.062;25.626;2023-09-19T12:37:13;1.40;;;1.30;;
68384;SDS011;55336;43.062;25.626;2023-09-19T12:40:03;1.38;;;1.27;;
68384;SDS011;55336;43.062;25.626;2023-09-19T12:42:47;1.48;;;1.38;;
68384;SDS011;55336;43.062;25.626;2023-09-19T12:45:15;2.20;;;1.05;;
68384;SDS011;55336;43.062;25.626;2023-09-19T12:56:15;1.80;;;1.52;;
68384;SDS011;55336;43.062;25.626;2023-09-19T12:58:53;1.75;;;1.50;;
68384;SDS011;55336;43.062;25.626;2023-09-19T13:01:26;1.30;;;1.20;;
68384;SDS011;55336;43.062;25.626;2023-09-19T13:06:46;1.42;;;1.33;;
68384;SDS011;55336;43.062;25.626;2023-09-19T13:09:13;1.30;;;1.20;;
68384;SDS011;55336;43.062;25.626;2023-09-19T13:11:41;1.02;;;1.02;;
68384;SDS011;55336;43.062;25.626;2023-09-19T13:16:53;0.93;;;0.93;;
68384;SDS011;55336;43.062;25.626;2023-09-19T13:25:10;0.88;;;0.88;;
68384;SDS011;55336;43.062;25.626;2023-09-19T13:27:40;0.95;;;0.93;;
68384;SDS011;55336;43.062;25.626;2023-09-19T13:30:07;1.42;;;1.33;;
68384;SDS011;55336;43.062;25.626;2023-09-19T13:32:33;1.45;;;1.25;;
68384;SDS011;55336;43.062;25.626;2023-09-19T13:34:59;1.00;;;1.00;;
68384;SDS011;55336;43.062;25.626;2023-09-19T13:37:25;1.20;;;1.10;;
68384;SDS011;55336;43.062;25.626;2023-09-19T13:39:51;1.77;;;1.30;;
68384;SDS011;55336;43.062;25.626;2023-09-19T13:42:18;1.20;;;1.10;;
68384;SDS011;55336;43.062;25.626;2023-09-19T13:44:46;1.40;;;1.30;;
68384;SDS011;55336;43.062;25.626;2023-09-19T13:47:13;0.95;;;0.95;;
68384;SDS011;55336;43.062;25.626;2023-09-19T13:49:40;1.33;;;1.23;;
68384;SDS011;55336;43.062;25.626;2023-09-19T13:52:07;0.80;;;0.80;;
68384;SDS011;55336;43.062;25.626;2023-09-19T13:54:34;1.60;;;1.50;;
68384;SDS011;55336;43.062;25.626;2023-09-19T13:57:00;1.17;;;1.00;;
68384;SDS011;55336;43.062;25.626;2023-09-19T13:59:25;2.85;;;1.42;;
68384;SDS011;55336;43.062;25.626;2023-09-19T14:01:53;1.17;;;1.10;;
68384;SDS011;55336;43.062;25.626;2023-09-19T14:04:21;6.63;;;1.27;;
68384;SDS011;55336;43.062;25.626;2023-09-19T14:06:47;0.95;;;0.95;;
68384;SDS011;55336;43.062;25.626;2023-09-19T14:09:13;0.90;;;0.90;;
68384;SDS011;55336;43.062;25.626;2023-09-19T14:11:39;1.80;;;1.48;;
68384;SDS011;55336;43.062;25.626;2023-09-19T14:14:05;1.20;;;1.10;;
68384;SDS011;55336;43.062;25.626;2023-09-19T14:16:31;1.23;;;1.13;;
68384;SDS011;55336;43.062;25.626;2023-09-19T14:18:58;1.02;;;1.02;;
68384;SDS011;55336;43.062;25.626;2023-09-19T14:21:25;1.02;;;1.00;;
68384;SDS011;55336;43.062;25.626;2023-09-19T14:23:51;0.98;;;0.98;;
68384;SDS011;55336;43.062;25.626;2023-09-19T14:26:19;1.38;;;1.27;;
68384;SDS011;55336;43.062;25.626;2023-09-19T14:28:45;2.45;;;1.45;;
68384;SDS011;55336;43.062;25.626;2023-09-19T14:31:11;4.00;;;0.98;;
68384;SDS011;55336;43.062;25.626;2023-09-19T14:33:37;0.93;;;0.93;;
68384;SDS011;55336;43.062;25.626;2023-09-19T14:36:07;1.25;;;0.90;;
68384;SDS011;55336;43.062;25.626;2023-09-19T14:38:34;1.40;;;1.30;;
68384;SDS011;55336;43.062;25.626;2023-09-19T14:41:01;1.58;;;1.45;;
68384;SDS011;55336;43.062;25.626;2023-09-19T14:43:28;1.55;;;1.45;;
68384;SDS011;55336;43.062;25.626;2023-09-19T14:45:56;1.73;;;1.63;;
68384;SDS011;55336;43.062;25.626;2023-09-19T14:48:24;1.67;;;1.40;;
68384;SDS011;55336;43.062;25.626;2023-09-19T14:50:51;2.10;;;1.83;;
68384;SDS011;55336;43.062;25.626;2023-09-19T14:53:17;1.52;;;1.42;;
68384;SDS011;55336;43.062;25.626;2023-09-19T14:55:44;1.65;;;1.55;;
68384;SDS011;55336;43.062;25.626;2023-09-19T14:58:12;1.23;;;1.23;;
68384;SDS011;55336;43.062;25.626;2023-09-19T15:00:39;1.13;;;1.13;;
68384;SDS011;55336;43.062;25.626;2023-09-19T15:03:05;2.92;;;2.10;;
68384;SDS011;55336;43.062;25.626;2023-09-19T15:05:31;1.17;;;1.17;;
68384;SDS011;55336;43.062;25.626;2023-09-19T15:07:59;1.67;;;1.58;;
68384;SDS011;55336;43.062;25.626;2023-09-19T15:10:25;4.45;;;2.35;;
68384;SDS011;55336;43.062;25.626;2023-09-19T15:12:52;1.20;;;1.20;;
68384;SDS011;55336;43.062;25.626;2023-09-19T15:15:19;1.95;;;1.52;;
68384;SDS011;55336;43.062;25.626;2023-09-19T15:17:46;2.95;;;1.70;;
68384;SDS011;55336;43.062;25.626;2023-09-19T15:20:12;1.67;;;1.58;;
68384;SDS011;55336;43.062;25.626;2023-09-19T15:22:39;1.40;;;1.30;;
68384;SDS011;55336;43.062;25.626;2023-09-19T15:25:05;1.13;;;1.10;;
68384;SDS011;55336;43.062;25.626;2023-09-19T15:27:31;2.53;;;1.45;;
68384;SDS011;55336;43.062;25.626;2023-09-19T15:30:01;2.13;;;1.80;;
68384;SDS011;55336;43.062;25.626;2023-09-19T15:32:28;4.72;;;2.47;;
68384;SDS011;55336;43.062;25.626;2023-09-19T15:34:54;3.17;;;1.85;;
68384;SDS011;55336;43.062;25.626;2023-09-19T15:37:20;3.13;;;2.05;;
68384;SDS011;55336;43.062;25.626;2023-09-19T15:39:47;1.75;;;1.42;;
68384;SDS011;55336;43.062;25.626;2023-09-19T15:42:14;2.88;;;1.40;;
68384;SDS011;55336;43.062;25.626;2023-09-19T15:44:41;1.90;;;1.70;;
68384;SDS011;55336;43.062;25.626;2023-09-19T15:47:09;2.60;;;2.38;;
68384;SDS011;55336;43.062;25.626;2023-09-19T15:52:01;2.40;;;1.55;;
68384;SDS011;55336;43.062;25.626;2023-09-19T15:54:26;2.22;;;1.50;;
68384;SDS011;55336;43.062;25.626;2023-09-19T15:56:53;2.05;;;1.90;;
68384;SDS011;55336;43.062;25.626;2023-09-19T15:59:20;1.52;;;1.40;;
68384;SDS011;55336;43.062;25.626;2023-09-19T16:04:12;1.70;;;1.60;;
68384;SDS011;55336;43.062;25.626;2023-09-19T16:06:39;2.08;;;1.08;;
68384;SDS011;55336;43.062;25.626;2023-09-19T16:09:06;2.40;;;2.20;;
68384;SDS011;55336;43.062;25.626;2023-09-19T16:11:33;4.55;;;1.95;;
68384;SDS011;55336;43.062;25.626;2023-09-19T16:14:00;2.33;;;1.73;;
68384;SDS011;55336;43.062;25.626;2023-09-19T16:16:27;1.55;;;1.45;;
68384;SDS011;55336;43.062;25.626;2023-09-19T16:18:56;3.63;;;2.08;;
68384;SDS011;55336;43.062;25.626;2023-09-19T16:21:28;2.35;;;1.63;;
68384;SDS011;55336;43.062;25.626;2023-09-19T16:23:56;4.28;;;2.10;;
68384;SDS011;55336;43.062;25.626;2023-09-19T16:26:24;1.48;;;1.38;;
68384;SDS011;55336;43.062;25.626;2023-09-19T16:28:53;2.47;;;1.58;;
68384;SDS011;55336;43.062;25.626;2023-09-19T16:31:21;2.20;;;1.75;;
68384;SDS011;55336;43.062;25.626;2023-09-19T16:36:14;1.92;;;1.77;;
68384;SDS011;55336;43.062;25.626;2023-09-19T16:38:44;2.00;;;1.80;;
68384;SDS011;55336;43.062;25.626;2023-09-19T16:41:13;1.52;;;1.42;;
68384;SDS011;55336;43.062;25.626;2023-09-19T16:43:40;4.65;;;2.15;;
68384;SDS011;55336;43.062;25.626;2023-09-19T16:46:07;1.75;;;1.65;;
68384;SDS011;55336;43.062;25.626;2023-09-19T16:48:36;3.00;;;2.05;;
68384;SDS011;55336;43.062;25.626;2023-09-19T16:51:03;1.95;;;1.48;;
68384;SDS011;55336;43.062;25.626;2023-09-19T16:53:32;2.03;;;1.77;;
68384;SDS011;55336;43.062;25.626;2023-09-19T16:58:29;2.90;;;1.65;;
68384;SDS011;55336;43.062;25.626;2023-09-19T17:00:58;4.68;;;1.90;;
68384;SDS011;55336;43.062;25.626;2023-09-19T17:03:24;6.65;;;2.50;;
68384;SDS011;55336;43.062;25.626;2023-09-19T17:05:51;2.17;;;2.00;;
68384;SDS011;55336;43.062;25.626;2023-09-19T17:08:17;1.48;;;1.42;;
68384;SDS011;55336;43.062;25.626;2023-09-19T17:10:43;1.65;;;1.55;;
68384;SDS011;55336;43.062;25.626;2023-09-19T17:13:11;2.35;;;1.95;;
68384;SDS011;55336;43.062;25.626;2023-09-19T17:18:04;3.35;;;2.05;;
68384;SDS011;55336;43.062;25.626;2023-09-19T17:20:30;1.70;;;1.60;;
68384;SDS011;55336;43.062;25.626;2023-09-19T17:22:57;4.85;;;2.28;;
68384;SDS011;55336;43.062;25.626;2023-09-19T17:25:24;1.90;;;1.73;;
68384;SDS011;55336;43.062;25.626;2023-09-19T17:27:53;2.67;;;1.80;;